sensor_id;sensor_type;location;lat;lon;timestamp;pressure;altitude;pressure_sealevel;temperature;humidity
18749;BME280;9503;53.560;10.246;2023-02-03T07:02:39;100461.53;;;7.44;100.00
18749;BME280;9503;53.560;10.246;2023-02-03T07:05:09;100461.09;;;7.52;100.00
18749;BME280;9503;53.560;10.246;2023-02-03T07:07:38;100468.44;;;7.62;100.00
18749;BME280;9503;53.560;10.246;2023-02-03T07:10:10;100467.34;;;7.57;100.00
18749;BME280;9503;53.560;10.246;2023-02-03T07:12:40;100457.44;;;7.63;100.00
18749;BME280;9503;53.560;10.246;2023-02-03T07:15:12;100472.75;;;7.63;100.00
18749;BME280;9503;53.560;10.246;2023-02-03T07:17:42;100449.25;;;7.68;100.00
18749;BME280;9503;53.560;10.246;2023-02-03T07:20:15;100441.53;;;7.67;100.00
18749;BME280;9503;53.560;10.246;2023-02-03T07:22:50;100427.97;;;7.68;100.00
18749;BME280;9503;53.560;10.246;2023-02-03T07:25:17;100440.97;;;7.72;100.00
18749;BME280;9503;53.560;10.246;2023-02-03T07:27:44;100448.06;;;7.78;100.00
18749;BME280;9503;53.560;10.246;2023-02-03T07:30:15;100444.69;;;7.94;100.00
18749;BME280;9503;53.560;10.246;2023-02-03T07:32:47;100449.63;;;7.91;100.00
18749;BME280;9503;53.560;10.246;2023-02-03T07:35:17;100443.91;;;7.95;100.00
18749;BME280;9503;53.560;10.246;2023-02-03T07:37:44;100457.88;;;8.01;100.00
18749;BME280;9503;53.560;10.246;2023-02-03T07:40:14;100452.03;;;8.04;100.00
18749;BME280;9503;53.560;10.246;2023-02-03T07:42:41;100459.25;;;8.11;100.00
18749;BME280;9503;53.560;10.246;2023-02-03T07:45:09;100468.25;;;8.04;100.00
18749;BME280;9503;53.560;10.246;2023-02-03T07:47:36;100437.00;;;8.25;100.00
18749;BME280;9503;53.560;10.246;2023-02-03T07:50:05;100454.34;;;8.47;100.00
18749;BME280;9503;53.560;10.246;2023-02-03T07:52:31;100447.19;;;8.09;100.00
18749;BME280;9503;53.560;10.246;2023-02-03T07:54:58;100453.78;;;8.05;100.00
18749;BME280;9503;53.560;10.246;2023-02-03T07:57:26;100448.94;;;8.10;100.00
18749;BME280;9503;53.560;10.246;2023-02-03T07:59:54;100457.38;;;8.40;100.00
18749;BME280;9503;53.560;10.246;2023-02-03T08:02:20;100456.47;;;8.72;100.00
18749;BME280;9503;53.560;10.246;2023-02-03T08:04:52;100469.47;;;8.93;100.00
18749;BME280;9503;53.560;10.246;2023-02-03T08:07:27;100484.06;;;8.95;100.00
18749;BME280;9503;53.560;10.246;2023-02-03T08:09:59;100508.69;;;8.93;100.00
18749;BME280;9503;53.560;10.246;2023-02-03T08:12:29;100544.25;;;9.05;100.00
18749;BME280;9503;53.560;10.246;2023-02-03T08:14:59;100558.56;;;8.69;100.00
18749;BME280;9503;53.560;10.246;2023-02-03T08:17:26;100570.97;;;8.00;100.00
18749;BME280;9503;53.560;10.246;2023-02-03T08:19:55;100595.03;;;7.45;100.00
18749;BME280;9503;53.560;10.246;2023-02-03T08:22:23;100593.53;;;7.48;100.00
18749;BME280;9503;53.560;10.246;2023-02-03T08:24:50;100624.97;;;7.19;100.00
18749;BME280;9503;53.560;10.246;2023-02-03T08:27:19;100593.28;;;7.29;100.00
18749;BME280;9503;53.560;10.246;2023-02-03T08:29:53;100577.09;;;7.29;100.00
18749;BME280;9503;53.560;10.246;2023-02-03T08:32:21;100585.72;;;7.60;100.00
18749;BME280;9503;53.560;10.246;2023-02-03T08:34:49;100594.25;;;7.75;100.00
18749;BME280;9503;53.560;10.246;2023-02-03T08:37:22;100584.44;;;7.98;100.00
18749;BME280;9503;53.560;10.246;2023-02-03T08:40:06;100588.03;;;8.16;100.00
18749;BME280;9503;53.560;10.246;2023-02-03T08:42:37;100600.31;;;8.53;100.00
18749;BME280;9503;53.560;10.246;2023-02-03T08:45:10;100608.13;;;8.56;100.00
18749;BME280;9503;53.560;10.246;2023-02-03T08:47:40;100605.09;;;8.63;100.00
18749;BME280;9503;53.560;10.246;2023-02-03T08:50:15;100602.81;;;8.84;100.00
18749;BME280;9503;53.560;10.246;2023-02-03T08:53:01;100610.97;;;8.93;100.00
18749;BME280;9503;53.560;10.246;2023-02-03T08:55:32;100620.53;;;8.81;100.00
18749;BME280;9503;53.560;10.246;2023-02-03T08:57:58;100612.78;;;8.79;100.00
18749;BME280;9503;53.560;10.246;2023-02-03T09:00:26;100624.72;;;9.11;100.00
18749;BME280;9503;53.560;10.246;2023-02-03T09:02:55;100602.41;;;8.93;100.00
18749;BME280;9503;53.560;10.246;2023-02-03T09:05:28;100595.38;;;8.89;100.00
18749;BME280;9503;53.560;10.246;2023-02-03T09:08:05;100617.41;;;9.03;100.00
18749;BME280;9503;53.560;10.246;2023-02-03T09:10:37;100608.16;;;8.89;100.00
18749;BME280;9503;53.560;10.246;2023-02-03T09:13:07;100612.09;;;8.82;100.00
18749;BME280;9503;53.560;10.246;2023-02-03T09:15:34;100612.00;;;8.97;100.00
18749;BME280;9503;53.560;10.246;2023-02-03T09:18:00;100627.56;;;9.18;100.00
18749;BME280;9503;53.560;10.246;2023-02-03T09:20:27;100640.28;;;9.16;100.00
18749;BME280;9503;53.560;10.246;2023-02-03T09:22:58;100647.97;;;9.00;100.00
18749;BME280;9503;53.560;10.246;2023-02-03T09:25:38;100649.16;;;8.90;100.00
18749;BME280;9503;53.560;10.246;2023-02-03T09:28:23;100620.84;;;8.87;100.00
18749;BME280;9503;53.560;10.246;2023-02-03T09:31:03;100626.59;;;9.32;100.00
18749;BME280;9503;53.560;10.246;2023-02-03T09:33:31;100612.63;;;8.60;100.00
18749;BME280;9503;53.560;10.246;2023-02-03T09:36:09;100627.72;;;8.88;100.00
18749;BME280;9503;53.560;10.246;2023-02-03T09:38:41;100633.97;;;9.09;100.00
18749;BME280;9503;53.560;10.246;2023-02-03T09:41:22;100630.06;;;9.00;100.00
18749;BME280;9503;53.560;10.246;2023-02-03T09:44:00;100655.38;;;9.44;100.00
18749;BME280;9503;53.560;10.246;2023-02-03T09:46:34;100639.50;;;9.01;100.00
18749;BME280;9503;53.560;10.246;2023-02-03T09:49:16;100664.03;;;9.13;100.00
18749;BME280;9503;53.560;10.246;2023-02-03T09:51:49;100662.56;;;9.51;100.00
18749;BME280;9503;53.560;10.246;2023-02-03T09:54:27;100660.09;;;9.53;100.00
18749;BME280;9503;53.560;10.246;2023-02-03T09:57:12;100670.56;;;9.57;100.00
18749;BME280;9503;53.560;10.246;2023-02-03T09:59:44;100678.28;;;9.75;100.00
18749;BME280;9503;53.560;10.246;2023-02-03T10:02:27;100694.25;;;9.69;100.00
18749;BME280;9503;53.560;10.246;2023-02-03T10:05:13;100704.41;;;9.19;100.00
18749;BME280;9503;53.560;10.246;2023-02-03T10:07:45;100696.81;;;9.69;100.00
18749;BME280;9503;53.560;10.246;2023-02-03T10:10:18;100710.78;;;9.60;100.00
18749;BME280;9503;53.560;10.246;2023-02-03T10:13:04;100708.47;;;9.64;100.00
18749;BME280;9503;53.560;10.246;2023-02-03T10:16:07;100708.56;;;9.66;100.00
18749;BME280;9503;53.560;10.246;2023-02-03T10:18:44;100710.38;;;9.85;100.00
18749;BME280;9503;53.560;10.246;2023-02-03T10:21:18;100705.25;;;9.68;100.00
18749;BME280;9503;53.560;10.246;2023-02-03T10:23:47;100735.44;;;9.74;100.00
18749;BME280;9503;53.560;10.246;2023-02-03T10:26:18;100727.84;;;9.59;100.00
18749;BME280;9503;53.560;10.246;2023-02-03T10:28:56;100727.56;;;9.87;100.00
18749;BME280;9503;53.560;10.246;2023-02-03T10:31:25;100730.56;;;9.62;100.00
18749;BME280;9503;53.560;10.246;2023-02-03T10:33:58;100757.34;;;9.69;100.00
18749;BME280;9503;53.560;10.246;2023-02-03T10:36:34;100716.63;;;9.74;100.00
18749;BME280;9503;53.560;10.246;2023-02-03T10:39:11;100743.38;;;9.62;100.00
18749;BME280;9503;53.560;10.246;2023-02-03T10:41:48;100743.00;;;9.89;100.00
18749;BME280;9503;53.560;10.246;2023-02-03T10:44:25;100730.09;;;9.69;99.68
18749;BME280;9503;53.560;10.246;2023-02-03T10:47:24;100738.38;;;9.82;100.00
18749;BME280;9503;53.560;10.246;2023-02-03T10:49:56;100748.72;;;9.51;100.00
18749;BME280;9503;53.560;10.246;2023-02-03T10:52:29;100754.97;;;9.56;100.00
18749;BME280;9503;53.560;10.246;2023-02-03T10:55:04;100674.94;;;8.95;100.00
18749;BME280;9503;53.560;10.246;2023-02-03T10:57:35;100755.91;;;9.58;100.00
18749;BME280;9503;53.560;10.246;2023-02-03T11:00:23;100756.31;;;9.65;99.02
18749;BME280;9503;53.560;10.246;2023-02-03T11:03:05;100764.69;;;9.47;99.27
18749;BME280;9503;53.560;10.246;2023-02-03T11:05:38;100765.75;;;9.50;99.36
18749;BME280;9503;53.560;10.246;2023-02-03T11:08:15;100784.59;;;9.36;100.00
18749;BME280;9503;53.560;10.246;2023-02-03T11:10:42;100773.34;;;9.65;98.04
18749;BME280;9503;53.560;10.246;2023-02-03T11:13:16;100779.75;;;9.57;98.15
18749;BME280;9503;53.560;10.246;2023-02-03T11:16:04;100778.28;;;9.46;99.05
18749;BME280;9503;53.560;10.246;2023-02-03T11:18:52;100778.38;;;9.47;97.79
18749;BME280;9503;53.560;10.246;2023-02-03T11:21:28;100782.25;;;9.72;98.33
18749;BME280;9503;53.560;10.246;2023-02-03T11:24:03;100782.53;;;9.45;97.95
18749;BME280;9503;53.560;10.246;2023-02-03T11:26:44;100774.84;;;9.61;97.57
18749;BME280;9503;53.560;10.246;2023-02-03T11:29:17;100787.72;;;9.47;97.53
18749;BME280;9503;53.560;10.246;2023-02-03T11:31:56;100801.50;;;9.65;97.29
18749;BME280;9503;53.560;10.246;2023-02-03T11:34:27;100786.78;;;9.93;96.57
18749;BME280;9503;53.560;10.246;2023-02-03T11:37:22;100784.63;;;9.85;96.52
18749;BME280;9503;53.560;10.246;2023-02-03T11:40:11;100792.38;;;9.54;96.08
18749;BME280;9503;53.560;10.246;2023-02-03T11:43:02;100776.72;;;9.48;97.28
18749;BME280;9503;53.560;10.246;2023-02-03T11:45:37;100783.25;;;9.75;96.13
18749;BME280;9503;53.560;10.246;2023-02-03T11:48:22;100798.81;;;9.78;95.43
18749;BME280;9503;53.560;10.246;2023-02-03T11:51:02;100757.97;;;9.81;93.50
18749;BME280;9503;53.560;10.246;2023-02-03T11:53:44;100787.28;;;9.70;93.53
18749;BME280;9503;53.560;10.246;2023-02-03T11:56:25;100778.56;;;9.99;92.20
18749;BME280;9503;53.560;10.246;2023-02-03T11:59:05;100776.56;;;9.77;91.84
18749;BME280;9503;53.560;10.246;2023-02-03T12:01:57;100807.22;;;9.92;92.10
18749;BME280;9503;53.560;10.246;2023-02-03T12:04:41;100801.75;;;9.86;93.42
18749;BME280;9503;53.560;10.246;2023-02-03T12:07:35;100836.53;;;9.66;91.82
18749;BME280;9503;53.560;10.246;2023-02-03T12:10:14;100809.66;;;9.74;91.54
18749;BME280;9503;53.560;10.246;2023-02-03T12:12:51;100800.56;;;9.79;92.38
18749;BME280;9503;53.560;10.246;2023-02-03T12:15:39;100813.81;;;10.05;92.07
18749;BME280;9503;53.560;10.246;2023-02-03T12:18:20;100812.38;;;10.26;91.31
18749;BME280;9503;53.560;10.246;2023-02-03T12:21:01;100824.78;;;10.35;90.48
18749;BME280;9503;53.560;10.246;2023-02-03T12:23:40;100828.78;;;9.81;91.86
18749;BME280;9503;53.560;10.246;2023-02-03T12:26:18;100833.59;;;10.07;91.62
18749;BME280;9503;53.560;10.246;2023-02-03T12:28:56;100828.78;;;9.97;91.22
18749;BME280;9503;53.560;10.246;2023-02-03T12:31:31;100830.16;;;10.07;90.67
18749;BME280;9503;53.560;10.246;2023-02-03T12:34:05;100848.72;;;9.86;91.70
18749;BME280;9503;53.560;10.246;2023-02-03T12:36:39;100836.56;;;9.82;92.25
18749;BME280;9503;53.560;10.246;2023-02-03T12:39:13;100842.16;;;9.75;91.59
18749;BME280;9503;53.560;10.246;2023-02-03T12:41:48;100848.31;;;9.95;90.88
18749;BME280;9503;53.560;10.246;2023-02-03T12:44:20;100844.88;;;9.78;91.32
18749;BME280;9503;53.560;10.246;2023-02-03T12:46:52;100852.31;;;9.74;91.19
18749;BME280;9503;53.560;10.246;2023-02-03T12:49:33;100847.59;;;9.81;91.04
18749;BME280;9503;53.560;10.246;2023-02-03T12:52:10;100854.41;;;9.33;93.70
18749;BME280;9503;53.560;10.246;2023-02-03T12:54:46;100848.69;;;9.54;92.10
18749;BME280;9503;53.560;10.246;2023-02-03T12:57:21;100843.59;;;9.86;91.71
18749;BME280;9503;53.560;10.246;2023-02-03T12:59:58;100857.00;;;9.50;92.73
18749;BME280;9503;53.560;10.246;2023-02-03T13:02:29;100853.78;;;9.54;92.13
18749;BME280;9503;53.560;10.246;2023-02-03T13:05:01;100860.78;;;9.56;92.42
18749;BME280;9503;53.560;10.246;2023-02-03T13:07:38;100842.88;;;9.56;92.14
18749;BME280;9503;53.560;10.246;2023-02-03T13:10:16;100847.91;;;9.55;91.96
18749;BME280;9503;53.560;10.246;2023-02-03T13:12:46;100860.13;;;9.60;91.56
18749;BME280;9503;53.560;10.246;2023-02-03T13:15:22;100870.03;;;9.85;89.67
18749;BME280;9503;53.560;10.246;2023-02-03T13:17:54;100862.88;;;9.63;90.31
18749;BME280;9503;53.560;10.246;2023-02-03T13:20:23;100863.38;;;9.41;90.11
18749;BME280;9503;53.560;10.246;2023-02-03T13:22:52;100861.53;;;9.70;90.53
18749;BME280;9503;53.560;10.246;2023-02-03T13:25:22;100869.44;;;9.75;90.39
18749;BME280;9503;53.560;10.246;2023-02-03T13:27:57;100870.31;;;9.28;91.08
18749;BME280;9503;53.560;10.246;2023-02-03T13:30:48;100871.22;;;9.45;90.92
18749;BME280;9503;53.560;10.246;2023-02-03T13:33:47;100891.66;;;9.28;90.71
18749;BME280;9503;53.560;10.246;2023-02-03T13:36:40;100877.09;;;9.58;90.28
18749;BME280;9503;53.560;10.246;2023-02-03T13:39:35;100883.09;;;9.59;89.69
18749;BME280;9503;53.560;10.246;2023-02-03T13:42:17;100893.00;;;9.53;90.03
18749;BME280;9503;53.560;10.246;2023-02-03T13:44:49;100892.31;;;9.72;89.84
18749;BME280;9503;53.560;10.246;2023-02-03T13:47:18;100890.47;;;9.38;90.70
18749;BME280;9503;53.560;10.246;2023-02-03T13:49:54;100892.78;;;9.33;90.75
18749;BME280;9503;53.560;10.246;2023-02-03T13:52:33;100887.22;;;9.40;91.24
18749;BME280;9503;53.560;10.246;2023-02-03T13:56:34;100895.13;;;8.99;92.35
18749;BME280;9503;53.560;10.246;2023-02-03T13:59:03;100874.53;;;9.27;92.29
18749;BME280;9503;53.560;10.246;2023-02-03T14:01:35;100888.97;;;9.41;93.31
18749;BME280;9503;53.560;10.246;2023-02-03T14:04:05;100895.69;;;9.25;92.50
18749;BME280;9503;53.560;10.246;2023-02-03T14:06:57;100887.28;;;8.96;93.09
18749;BME280;9503;53.560;10.246;2023-02-03T14:10:04;100878.97;;;9.00;93.53
18749;BME280;9503;53.560;10.246;2023-02-03T14:12:37;100863.47;;;8.97;93.51
18749;BME280;9503;53.560;10.246;2023-02-03T14:15:26;100898.13;;;8.92;95.09
18749;BME280;9503;53.560;10.246;2023-02-03T14:17:58;100915.72;;;9.17;94.58
18749;BME280;9503;53.560;10.246;2023-02-03T14:23:38;100905.63;;;9.04;95.01
18749;BME280;9503;53.560;10.246;2023-02-03T14:26:14;100900.59;;;9.05;95.74
18749;BME280;9503;53.560;10.246;2023-02-03T14:28:45;100912.41;;;9.18;94.87
18749;BME280;9503;53.560;10.246;2023-02-03T14:31:16;100908.06;;;9.17;93.81
18749;BME280;9503;53.560;10.246;2023-02-03T14:33:53;100917.31;;;9.30;94.30
18749;BME280;9503;53.560;10.246;2023-02-03T14:36:31;100918.34;;;9.48;93.88
18749;BME280;9503;53.560;10.246;2023-02-03T14:39:02;100920.63;;;8.98;94.79
18749;BME280;9503;53.560;10.246;2023-02-03T14:41:38;100916.59;;;8.58;97.52
18749;BME280;9503;53.560;10.246;2023-02-03T14:44:20;100926.06;;;8.60;97.65
18749;BME280;9503;53.560;10.246;2023-02-03T14:47:01;100930.91;;;8.70;97.38
18749;BME280;9503;53.560;10.246;2023-02-03T14:49:58;100934.69;;;8.62;97.95
18749;BME280;9503;53.560;10.246;2023-02-03T14:52:40;100960.53;;;8.96;96.65
18749;BME280;9503;53.560;10.246;2023-02-03T14:55:21;100933.47;;;8.84;97.24
18749;BME280;9503;53.560;10.246;2023-02-03T14:57:53;100927.28;;;8.66;97.41
18749;BME280;9503;53.560;10.246;2023-02-03T15:00:28;100946.34;;;8.86;97.48
18749;BME280;9503;53.560;10.246;2023-02-03T15:03:29;100937.00;;;9.16;96.27
18749;BME280;9503;53.560;10.246;2023-02-03T15:05:58;100946.34;;;9.01;96.68
18749;BME280;9503;53.560;10.246;2023-02-03T15:08:37;100953.66;;;8.95;96.66
18749;BME280;9503;53.560;10.246;2023-02-03T15:11:27;100946.56;;;8.33;99.30
18749;BME280;9503;53.560;10.246;2023-02-03T15:13:55;100946.56;;;8.33;99.96
18749;BME280;9503;53.560;10.246;2023-02-03T15:16:24;100948.56;;;8.52;99.46
18749;BME280;9503;53.560;10.246;2023-02-03T15:18:56;100925.91;;;8.43;99.94
18749;BME280;9503;53.560;10.246;2023-02-03T15:21:24;100953.75;;;8.39;100.00
18749;BME280;9503;53.560;10.246;2023-02-03T15:23:51;100959.25;;;8.31;100.00
18749;BME280;9503;53.560;10.246;2023-02-03T15:26:21;100972.06;;;8.60;99.31
18749;BME280;9503;53.560;10.246;2023-02-03T15:28:55;100966.91;;;8.31;100.00
18749;BME280;9503;53.560;10.246;2023-02-03T15:31:29;100972.69;;;8.42;100.00
18749;BME280;9503;53.560;10.246;2023-02-03T15:34:01;100979.69;;;8.31;100.00
18749;BME280;9503;53.560;10.246;2023-02-03T15:36:35;100970.47;;;8.20;100.00
18749;BME280;9503;53.560;10.246;2023-02-03T15:39:13;100990.22;;;8.23;100.00
18749;BME280;9503;53.560;10.246;2023-02-03T15:41:42;100977.16;;;8.18;100.00
18749;BME280;9503;53.560;10.246;2023-02-03T15:44:21;100971.81;;;8.28;100.00
18749;BME280;9503;53.560;10.246;2023-02-03T15:46:52;100964.09;;;8.14;100.00
18749;BME280;9503;53.560;10.246;2023-02-03T15:49:22;100991.72;;;8.06;100.00
18749;BME280;9503;53.560;10.246;2023-02-03T15:51:53;101004.56;;;8.21;100.00
18749;BME280;9503;53.560;10.246;2023-02-03T15:54:23;100993.75;;;8.38;100.00
18749;BME280;9503;53.560;10.246;2023-02-03T15:56:56;100994.81;;;8.28;100.00
18749;BME280;9503;53.560;10.246;2023-02-03T15:59:29;101009.25;;;8.28;100.00
18749;BME280;9503;53.560;10.246;2023-02-03T16:01:59;101001.03;;;8.19;100.00
18749;BME280;9503;53.560;10.246;2023-02-03T16:04:29;101003.84;;;8.37;100.00
18749;BME280;9503;53.560;10.246;2023-02-03T16:06:56;100996.47;;;8.28;100.00
18749;BME280;9503;53.560;10.246;2023-02-03T16:09:27;101015.53;;;8.33;100.00
18749;BME280;9503;53.560;10.246;2023-02-03T16:12:10;100993.97;;;8.15;100.00
18749;BME280;9503;53.560;10.246;2023-02-03T16:14:39;101013.84;;;7.92;100.00
18749;BME280;9503;53.560;10.246;2023-02-03T16:17:21;101016.88;;;8.00;100.00
18749;BME280;9503;53.560;10.246;2023-02-03T16:19:49;100984.78;;;7.90;100.00
18749;BME280;9503;53.560;10.246;2023-02-03T16:22:26;100999.63;;;7.83;100.00
18749;BME280;9503;53.560;10.246;2023-02-03T16:24:53;101030.94;;;7.93;100.00
18749;BME280;9503;53.560;10.246;2023-02-03T16:27:31;101035.97;;;7.79;100.00
18749;BME280;9503;53.560;10.246;2023-02-03T16:30:23;101002.00;;;7.80;100.00
18749;BME280;9503;53.560;10.246;2023-02-03T16:33:16;101004.81;;;7.71;100.00
18749;BME280;9503;53.560;10.246;2023-02-03T16:36:09;101007.97;;;7.54;100.00
18749;BME280;9503;53.560;10.246;2023-02-03T16:38:54;101007.84;;;7.39;100.00
18749;BME280;9503;53.560;10.246;2023-02-03T16:41:38;101017.66;;;7.33;100.00
18749;BME280;9503;53.560;10.246;2023-02-03T16:44:22;101028.84;;;7.48;100.00
18749;BME280;9503;53.560;10.246;2023-02-03T16:47:23;101017.84;;;7.23;100.00
18749;BME280;9503;53.560;10.246;2023-02-03T16:50:12;101034.66;;;7.07;100.00
18749;BME280;9503;53.560;10.246;2023-02-03T16:52:57;101030.00;;;7.27;100.00
18749;BME280;9503;53.560;10.246;2023-02-03T16:55:23;101041.84;;;7.13;100.00
18749;BME280;9503;53.560;10.246;2023-02-03T16:57:50;101039.78;;;7.07;100.00
18749;BME280;9503;53.560;10.246;2023-02-03T17:00:17;101044.03;;;6.95;100.00
18749;BME280;9503;53.560;10.246;2023-02-03T17:02:46;101019.38;;;7.07;100.00
18749;BME280;9503;53.560;10.246;2023-02-03T17:05:14;101035.69;;;6.84;100.00
18749;BME280;9503;53.560;10.246;2023-02-03T17:07:41;101048.34;;;6.96;100.00
18749;BME280;9503;53.560;10.246;2023-02-03T17:10:09;101049.00;;;7.05;100.00
18749;BME280;9503;53.560;10.246;2023-02-03T17:12:35;101064.53;;;7.22;100.00
18749;BME280;9503;53.560;10.246;2023-02-03T17:15:03;101063.53;;;6.95;100.00
18749;BME280;9503;53.560;10.246;2023-02-03T17:17:29;101077.59;;;7.01;100.00
18749;BME280;9503;53.560;10.246;2023-02-03T17:19:56;101075.59;;;6.97;100.00
18749;BME280;9503;53.560;10.246;2023-02-03T17:22:25;101092.00;;;6.76;100.00
18749;BME280;9503;53.560;10.246;2023-02-03T17:24:52;101086.22;;;7.03;100.00
18749;BME280;9503;53.560;10.246;2023-02-03T17:27:18;101095.91;;;6.96;100.00
18749;BME280;9503;53.560;10.246;2023-02-03T17:29:45;101099.66;;;7.01;100.00
18749;BME280;9503;53.560;10.246;2023-02-03T17:32:12;101104.78;;;6.89;100.00
18749;BME280;9503;53.560;10.246;2023-02-03T17:34:40;101116.25;;;7.07;100.00
18749;BME280;9503;53.560;10.246;2023-02-03T17:37:07;101124.63;;;6.93;100.00
18749;BME280;9503;53.560;10.246;2023-02-03T17:39:35;101134.91;;;6.95;100.00
18749;BME280;9503;53.560;10.246;2023-02-03T17:42:02;101134.56;;;7.02;100.00
18749;BME280;9503;53.560;10.246;2023-02-03T17:44:28;101128.22;;;7.08;100.00
18749;BME280;9503;53.560;10.246;2023-02-03T17:46:55;101141.94;;;7.10;100.00
18749;BME280;9503;53.560;10.246;2023-02-03T17:49:22;101136.69;;;6.96;100.00
18749;BME280;9503;53.560;10.246;2023-02-03T17:51:48;101134.81;;;6.93;100.00
18749;BME280;9503;53.560;10.246;2023-02-03T17:54:15;101134.66;;;6.67;100.00
18749;BME280;9503;53.560;10.246;2023-02-03T17:56:43;101145.81;;;6.80;100.00
18749;BME280;9503;53.560;10.246;2023-02-03T17:59:12;101159.59;;;6.71;100.00
